Time;durP1;ratioP1;P1;durP2;ratioP2;P2;SDS_P1;SDS_P2;PMS_P1;PMS_P2;Temp;Humidity;BMP_temperature;BMP_pressure;BME280_temperature;BME280_humidity;BME280_pressure;Samples;Min_cycle;Max_cycle;Signal;HPM_P1;HPM_P2
2023/01/28 00:02:06;;;;;;;24.92;18.60;;;4.40;81.30;;;;;;5034423;28;20033;-75
2023/01/28 00:04:32;;;;;;;23.95;17.00;;;4.40;81.40;;;;;;5037618;28;20547;-76
2023/01/28 00:06:57;;;;;;;23.85;17.65;;;4.30;81.40;;;;;;5034011;28;20038;-76
2023/01/28 00:09:23;;;;;;;24.50;18.30;;;4.30;81.60;;;;;;5036612;28;20554;-76
2023/01/28 00:11:48;;;;;;;23.52;16.73;;;4.30;81.80;;;;;;5035320;28;20048;-75
2023/01/28 00:14:14;;;;;;;23.83;16.90;;;4.30;81.80;;;;;;5033923;28;20445;-76
2023/01/28 00:16:40;;;;;;;24.60;17.80;;;4.20;82.00;;;;;;5037242;28;20037;-75
2023/01/28 00:19:06;;;;;;;25.52;18.48;;;4.20;82.10;;;;;;5033178;28;20096;-75
2023/01/28 00:21:31;;;;;;;24.92;18.02;;;4.30;82.30;;;;;;5028626;28;20676;-76
2023/01/28 00:23:57;;;;;;;24.73;17.83;;;4.30;82.30;;;;;;5032282;28;20222;-76
2023/01/28 00:26:24;;;;;;;27.38;18.02;;;4.20;82.20;;;;;;5040070;28;20029;-76
2023/01/28 00:28:50;;;;;;;26.05;17.80;;;4.20;82.30;;;;;;5035183;28;20536;-75
2023/01/28 00:31:19;;;;;;;24.55;18.05;;;4.20;82.10;;;;;;5038546;28;20034;-75
2023/01/28 00:33:47;;;;;;;24.63;18.05;;;4.20;82.00;;;;;;5034927;28;20079;-75
2023/01/28 00:36:14;;;;;;;24.52;17.35;;;4.20;82.10;;;;;;5035146;28;20429;-75
2023/01/28 00:38:41;;;;;;;25.67;17.90;;;4.20;82.10;;;;;;5038953;28;20028;-76
2023/01/28 00:41:12;;;;;;;26.25;18.50;;;4.30;81.90;;;;;;5035515;28;20453;-76
2023/01/28 00:43:38;;;;;;;25.10;18.45;;;4.30;81.90;;;;;;5038044;28;20017;-76
2023/01/28 00:46:06;;;;;;;26.10;18.83;;;4.20;81.80;;;;;;5031332;28;20467;-75
2023/01/28 00:48:32;;;;;;;25.27;18.27;;;4.20;81.90;;;;;;5035903;28;20045;-76
2023/01/28 00:50:58;;;;;;;26.52;19.58;;;4.20;82.10;;;;;;5031081;28;20037;-76
2023/01/28 00:53:24;;;;;;;25.20;18.70;;;4.20;81.90;;;;;;5041020;28;20727;-76
2023/01/28 00:55:49;;;;;;;24.42;17.75;;;4.10;81.90;;;;;;5032577;28;20239;-75
2023/01/28 00:58:15;;;;;;;24.08;18.23;;;4.20;81.90;;;;;;5034876;28;20982;-76
2023/01/28 01:00:41;;;;;;;26.08;18.25;;;4.20;81.80;;;;;;5032290;28;20048;-75
2023/01/28 01:03:06;;;;;;;26.02;18.63;;;4.20;81.80;;;;;;5035467;28;20452;-75
2023/01/28 01:05:32;;;;;;;26.40;19.17;;;4.10;81.80;;;;;;5037528;28;20510;-75
2023/01/28 01:07:59;;;;;;;25.33;18.40;;;4.20;81.60;;;;;;5037593;28;20013;-75
2023/01/28 01:10:25;;;;;;;25.67;18.50;;;4.20;81.70;;;;;;5034358;28;20037;-76
2023/01/28 01:12:51;;;;;;;26.40;19.05;;;4.20;81.80;;;;;;5042727;28;20074;-76
2023/01/28 01:15:18;;;;;;;26.48;18.80;;;4.10;81.70;;;;;;5038040;28;20529;-76
2023/01/28 01:17:46;;;;;;;25.67;18.38;;;4.20;81.80;;;;;;5041932;28;20039;-75
2023/01/28 01:20:18;;;;;;;26.60;19.38;;;4.20;81.90;;;;;;5039793;28;20025;-75
2023/01/28 01:22:44;;;;;;;24.65;17.95;;;4.20;81.90;;;;;;5039613;28;21082;-76
2023/01/28 01:25:11;;;;;;;27.80;19.33;;;4.20;82.00;;;;;;5045251;28;20532;-76
2023/01/28 01:27:37;;;;;;;25.40;18.25;;;4.20;81.90;;;;;;5034330;28;20044;-75
2023/01/28 01:30:03;;;;;;;26.85;19.00;;;4.10;82.00;;;;;;5038663;28;20036;-75
2023/01/28 01:32:31;;;;;;;26.73;19.83;;;4.20;82.00;;;;;;5043168;28;20055;-78
2023/01/28 01:34:57;;;;;;;25.35;19.10;;;4.10;82.00;;;;;;5043277;28;20075;-75
2023/01/28 01:37:22;;;;;;;25.25;18.23;;;4.10;81.90;;;;;;5042618;28;20448;-77
2023/01/28 01:39:48;;;;;;;26.52;19.50;;;4.10;82.00;;;;;;5043444;28;20029;-76
2023/01/28 01:42:14;;;;;;;26.70;18.42;;;4.10;81.90;;;;;;5041196;28;20474;-78
2023/01/28 01:45:00;;;;;;;27.77;19.13;;;4.10;81.90;;;;;;5044067;28;20017;-76
2023/01/28 01:47:28;;;;;;;26.67;19.95;;;4.10;81.80;;;;;;5050365;28;20125;-76
2023/01/28 01:49:55;;;;;;;26.10;19.05;;;4.10;81.70;;;;;;5042278;28;20021;-76
2023/01/28 01:52:25;;;;;;;25.25;18.85;;;4.10;81.70;;;;;;5037072;28;20051;-76
2023/01/28 01:54:55;;;;;;;25.92;18.70;;;4.10;81.70;;;;;;5044056;28;20021;-76
2023/01/28 01:57:26;;;;;;;28.48;20.30;;;4.10;81.70;;;;;;5037224;28;20029;-76
2023/01/28 01:59:52;;;;;;;25.98;19.30;;;4.10;81.70;;;;;;5039386;28;20027;-76
2023/01/28 02:02:18;;;;;;;25.20;18.67;;;4.10;81.60;;;;;;5039040;28;20080;-76
2023/01/28 02:04:44;;;;;;;25.80;18.48;;;4.10;81.50;;;;;;5037577;28;20025;-76
2023/01/28 02:07:17;;;;;;;25.75;19.17;;;4.10;81.50;;;;;;5039954;28;20041;-76
2023/01/28 02:09:43;;;;;;;26.27;19.42;;;4.10;81.60;;;;;;5039907;28;20028;-76
2023/01/28 02:12:17;;;;;;;26.63;19.30;;;4.10;81.60;;;;;;5042875;28;20029;-76
2023/01/28 02:15:00;;;;;;;24.45;18.23;;;4.10;81.80;;;;;;5039908;28;20123;-76
2023/01/28 02:17:27;;;;;;;24.55;17.73;;;4.10;81.90;;;;;;5041871;28;20083;-76
2023/01/28 02:19:59;;;;;;;24.35;18.33;;;4.00;82.30;;;;;;5041855;28;20155;-76
2023/01/28 02:22:34;;;;;;;24.05;17.58;;;4.00;82.50;;;;;;5042180;28;20522;-76
2023/01/28 02:25:02;;;;;;;26.95;17.92;;;4.00;82.80;;;;;;5038944;28;20087;-76
2023/01/28 02:28:06;;;;;;;24.00;16.58;;;4.00;83.00;;;;;;5038317;28;20056;-76
2023/01/28 02:30:40;;;;;;;26.15;17.58;;;4.00;83.00;;;;;;5038057;28;20116;-76
2023/01/28 02:33:42;;;;;;;22.02;16.98;;;3.90;83.30;;;;;;5044085;28;20025;-75
2023/01/28 02:36:36;;;;;;;23.48;16.90;;;3.90;83.50;;;;;;5003287;28;20069;-76
2023/01/28 02:39:09;;;;;;;24.35;16.85;;;3.80;83.80;;;;;;5038468;28;20086;-76
2023/01/28 02:42:04;;;;;;;22.55;16.58;;;3.80;83.60;;;;;;5042538;28;20086;-76
2023/01/28 02:44:30;;;;;;;23.50;16.80;;;3.80;83.70;;;;;;5022863;28;20093;-76
2023/01/28 02:49:46;;;;;;;25.40;16.77;;;3.80;83.60;;;;;;5043340;28;20128;-76
2023/01/28 02:53:39;;;;;;;21.48;15.85;;;3.80;83.60;;;;;;5042064;28;20102;-77
2023/01/28 02:55:30;;;;;;;21.10;15.25;;;3.70;83.50;;;;;;5040100;28;20024;-76
2023/01/28 02:58:00;;;;;;;22.23;16.55;;;3.70;83.50;;;;;;5040812;28;20045;-75
2023/01/28 03:00:47;;;;;;;21.90;16.45;;;3.70;83.40;;;;;;5041672;28;20028;-76
2023/01/28 03:03:20;;;;;;;21.83;15.88;;;3.70;83.50;;;;;;5040663;28;20516;-76
2023/01/28 03:06:07;;;;;;;21.50;15.80;;;3.70;83.40;;;;;;5042527;28;20048;-76
2023/01/28 03:36:50;;;;;;;21.88;14.75;;;3.60;82.80;;;;;;5038404;28;20071;-77
2023/01/28 03:39:25;;;;;;;19.75;15.38;;;3.60;82.90;;;;;;5041231;28;20048;-78
2023/01/28 03:41:58;;;;;;;;;;;3.60;82.80;;;;;;5037835;28;20090;-77
2023/01/28 03:47:10;;;;;;;21.33;15.38;;;3.60;82.80;;;;;;5038057;28;20302;-77
2023/01/28 03:49:40;;;;;;;28.00;15.73;;;3.60;82.80;;;;;;5032988;28;20045;-77
2023/01/28 03:52:06;;;;;;;19.35;14.55;;;3.60;82.50;;;;;;5036999;28;20036;-77
2023/01/28 03:54:32;;;;;;;20.90;15.40;;;3.60;82.40;;;;;;5039592;28;20017;-77
2023/01/28 03:56:58;;;;;;;19.75;14.60;;;3.60;82.30;;;;;;5039854;28;20404;-77
2023/01/28 03:59:23;;;;;;;20.45;15.40;;;3.60;82.20;;;;;;5037264;28;20029;-77
2023/01/28 04:01:49;;;;;;;21.55;14.68;;;3.60;82.30;;;;;;5037350;28;20024;-77
2023/01/28 04:04:22;;;;;;;19.40;15.20;;;3.60;82.30;;;;;;5040765;28;20017;-77
2023/01/28 04:06:52;;;;;;;20.05;14.80;;;3.60;82.00;;;;;;5040450;28;20029;-77
2023/01/28 04:09:19;;;;;;;21.55;16.23;;;3.60;82.00;;;;;;5039505;28;20021;-77
2023/01/28 04:11:44;;;;;;;20.52;14.90;;;3.60;81.90;;;;;;5038896;28;20052;-77
2023/01/28 04:14:10;;;;;;;20.60;14.68;;;3.60;81.90;;;;;;5042154;28;20314;-77
2023/01/28 04:16:35;;;;;;;20.73;15.00;;;3.60;82.00;;;;;;5040187;28;20065;-77
2023/01/28 04:19:01;;;;;;;21.13;15.68;;;3.60;82.00;;;;;;5040707;28;20022;-77
2023/01/28 04:21:27;;;;;;;21.88;15.77;;;3.60;82.00;;;;;;5042017;28;20029;-77
2023/01/28 04:23:52;;;;;;;19.13;14.63;;;3.60;82.00;;;;;;5041208;28;20070;-77
2023/01/28 04:26:18;;;;;;;22.30;15.73;;;3.60;81.90;;;;;;5037457;28;20025;-77
2023/01/28 04:28:44;;;;;;;21.95;15.20;;;3.60;81.80;;;;;;5035835;28;20458;-76
2023/01/28 04:31:09;;;;;;;19.65;15.13;;;3.50;82.10;;;;;;5040563;28;20036;-77
2023/01/28 04:33:35;;;;;;;22.65;15.40;;;3.60;82.20;;;;;;5040736;28;20095;-76
2023/01/28 04:36:01;;;;;;;22.48;16.05;;;3.50;82.10;;;;;;5040842;28;20165;-77
2023/01/28 04:38:26;;;;;;;21.42;15.73;;;3.50;82.30;;;;;;5040323;28;20028;-77
2023/01/28 04:40:53;;;;;;;20.13;14.68;;;3.50;82.20;;;;;;5039544;28;20492;-77
2023/01/28 04:43:19;;;;;;;21.70;15.82;;;3.50;82.10;;;;;;5038308;28;20033;-77
2023/01/28 04:45:46;;;;;;;22.45;15.40;;;3.50;82.00;;;;;;5039944;28;20025;-76
2023/01/28 04:48:12;;;;;;;21.33;15.55;;;3.60;82.10;;;;;;5043979;28;20122;-76
2023/01/28 04:50:38;;;;;;;23.85;16.52;;;3.50;81.90;;;;;;5041202;28;20056;-77
2023/01/28 04:53:03;;;;;;;22.00;16.25;;;3.50;81.80;;;;;;5044026;28;20553;-77
2023/01/28 04:55:29;;;;;;;21.23;15.18;;;3.50;81.60;;;;;;5042535;28;20474;-76
2023/01/28 04:57:55;;;;;;;20.52;15.27;;;3.50;81.30;;;;;;5043824;28;20031;-77
2023/01/28 05:00:20;;;;;;;21.50;16.15;;;3.50;81.30;;;;;;5037747;28;20021;-77
2023/01/28 05:02:46;;;;;;;20.10;15.07;;;3.50;81.60;;;;;;5045280;28;20033;-77
2023/01/28 05:05:12;;;;;;;22.00;16.23;;;3.60;81.70;;;;;;5045084;28;20055;-77
2023/01/28 05:07:37;;;;;;;20.88;15.82;;;3.60;81.60;;;;;;5044893;28;20079;-77
2023/01/28 05:10:04;;;;;;;22.30;15.90;;;3.50;81.40;;;;;;5045327;28;20029;-75
2023/01/28 05:12:31;;;;;;;21.70;16.40;;;3.60;81.60;;;;;;5043683;28;20127;-77
2023/01/28 05:14:59;;;;;;;21.20;16.25;;;3.50;81.00;;;;;;5043961;28;20450;-77
2023/01/28 05:17:26;;;;;;;19.42;14.88;;;3.50;79.80;;;;;;5041700;28;20040;-77
2023/01/28 05:19:52;;;;;;;21.52;15.85;;;3.60;80.00;;;;;;5042216;28;20465;-77
2023/01/28 05:22:17;;;;;;;20.67;15.13;;;3.60;80.20;;;;;;5041823;28;20494;-77
2023/01/28 05:24:43;;;;;;;21.13;15.40;;;3.60;80.50;;;;;;5041557;28;20049;-75
2023/01/28 05:27:09;;;;;;;20.98;15.35;;;3.60;80.50;;;;;;5041595;28;20037;-77
2023/01/28 05:29:34;;;;;;;22.02;15.63;;;3.60;80.50;;;;;;5043337;28;20100;-78
2023/01/28 05:32:00;;;;;;;22.60;15.82;;;3.60;80.50;;;;;;5043622;28;20043;-77
2023/01/28 05:34:25;;;;;;;21.90;15.90;;;3.60;80.60;;;;;;5037876;28;20033;-75
2023/01/28 05:36:51;;;;;;;22.50;15.77;;;3.60;80.90;;;;;;5039942;28;20029;-76
2023/01/28 05:39:17;;;;;;;22.80;16.23;;;3.60;81.10;;;;;;5044150;28;20449;-75
2023/01/28 05:41:42;;;;;;;24.50;17.85;;;3.60;80.90;;;;;;5046588;28;20547;-76
2023/01/28 05:44:08;;;;;;;23.67;17.65;;;3.60;80.40;;;;;;5042912;28;20075;-76
2023/01/28 05:46:34;;;;;;;24.63;17.92;;;3.60;80.50;;;;;;5040407;28;20017;-76
2023/01/28 05:48:59;;;;;;;23.05;18.08;;;3.60;80.80;;;;;;5043978;28;20120;-76
2023/01/28 05:51:25;;;;;;;26.45;19.52;;;3.60;81.20;;;;;;5042756;28;20448;-77
2023/01/28 05:53:50;;;;;;;25.90;20.58;;;3.60;81.40;;;;;;5040060;28;20393;-77
2023/01/28 05:56:16;;;;;;;25.95;20.80;;;3.60;81.70;;;;;;5042975;28;20025;-76
2023/01/28 05:58:42;;;;;;;26.88;20.90;;;3.70;81.60;;;;;;5037152;28;20412;-77
2023/01/28 06:01:07;;;;;;;28.42;21.83;;;3.60;81.90;;;;;;5038246;28;20412;-76
2023/01/28 06:03:33;;;;;;;28.55;22.10;;;3.60;82.00;;;;;;5042924;28;20457;-76
2023/01/28 06:05:58;;;;;;;28.85;22.30;;;3.60;82.20;;;;;;5040901;28;20268;-76
2023/01/28 06:08:24;;;;;;;30.73;23.38;;;3.60;82.30;;;;;;5039525;28;20112;-77
2023/01/28 06:10:50;;;;;;;31.80;24.00;;;3.60;82.60;;;;;;5043082;28;20028;-75
2023/01/28 06:13:15;;;;;;;32.63;25.25;;;3.60;82.60;;;;;;5041946;28;20025;-76
2023/01/28 06:15:41;;;;;;;31.13;24.48;;;3.50;82.50;;;;;;5042088;28;20041;-76
2023/01/28 06:18:06;;;;;;;33.30;25.35;;;3.50;82.70;;;;;;5043682;28;20031;-78
2023/01/28 06:20:32;;;;;;;33.90;25.85;;;3.50;82.70;;;;;;5042135;28;20040;-75
2023/01/28 06:22:58;;;;;;;31.00;24.17;;;3.50;83.00;;;;;;5041945;28;20055;-75
2023/01/28 06:25:23;;;;;;;31.98;24.02;;;3.60;82.90;;;;;;5041976;28;20078;-76
2023/01/28 06:27:49;;;;;;;32.80;24.33;;;3.50;82.70;;;;;;5039867;28;20071;-76
2023/01/28 06:30:15;;;;;;;33.00;24.63;;;3.50;81.90;;;;;;5043030;28;20016;-76
2023/01/28 06:32:41;;;;;;;33.88;25.15;;;3.60;81.60;;;;;;5043552;28;20100;-76
2023/01/28 06:35:07;;;;;;;33.15;25.23;;;3.60;81.80;;;;;;5037781;28;20108;-76
2023/01/28 06:37:34;;;;;;;33.65;25.52;;;3.60;81.90;;;;;;5041666;28;20811;-76
2023/01/28 06:39:59;;;;;;;36.05;27.42;;;3.60;82.10;;;;;;5042886;28;20342;-77
2023/01/28 06:42:25;;;;;;;34.60;25.55;;;3.60;82.20;;;;;;5041360;28;20043;-77
2023/01/28 06:44:51;;;;;;;34.80;25.98;;;3.50;81.80;;;;;;5044210;28;20614;-77
2023/01/28 06:47:16;;;;;;;37.15;27.50;;;3.50;81.40;;;;;;5040961;28;20190;-77
2023/01/28 06:49:42;;;;;;;35.67;28.23;;;3.50;81.10;;;;;;5041370;28;20083;-78
2023/01/28 06:52:08;;;;;;;37.40;29.38;;;3.40;81.20;;;;;;5039943;28;20470;-77
2023/01/28 06:54:33;;;;;;;37.08;26.98;;;3.40;81.30;;;;;;5040224;28;20025;-77
2023/01/28 06:56:59;;;;;;;37.90;29.60;;;3.50;81.40;;;;;;5042212;28;20500;-77
2023/01/28 06:59:24;;;;;;;33.63;26.15;;;3.50;81.40;;;;;;5039623;28;20040;-77
2023/01/28 07:01:50;;;;;;;35.00;26.55;;;3.50;81.10;;;;;;5041226;28;20113;-77
2023/01/28 07:04:16;;;;;;;35.47;26.85;;;3.50;80.00;;;;;;5038840;28;20032;-77
2023/01/28 07:06:41;;;;;;;32.60;25.30;;;3.50;80.20;;;;;;5040725;28;20055;-77
2023/01/28 07:09:07;;;;;;;36.55;27.70;;;3.50;80.10;;;;;;5040902;28;20521;-77
2023/01/28 07:11:33;;;;;;;37.22;27.40;;;3.50;79.40;;;;;;5039506;28;20118;-77
2023/01/28 07:13:58;;;;;;;37.25;29.48;;;3.50;79.20;;;;;;5042796;28;20424;-77
2023/01/28 07:16:24;;;;;;;33.08;26.83;;;3.50;79.00;;;;;;5038578;28;20030;-77
2023/01/28 07:18:50;;;;;;;33.88;25.67;;;3.50;78.70;;;;;;5039110;28;20061;-76
2023/01/28 07:21:16;;;;;;;36.97;27.70;;;3.50;78.30;;;;;;5042343;28;20376;-76
2023/01/28 07:23:41;;;;;;;30.45;22.00;;;3.50;78.50;;;;;;5039729;28;20282;-77
2023/01/28 07:26:07;;;;;;;34.30;25.95;;;3.40;77.50;;;;;;5039513;28;20037;-77
2023/01/28 07:28:33;;;;;;;34.38;26.83;;;3.40;77.30;;;;;;5042044;28;20029;-77
2023/01/28 07:30:58;;;;;;;32.85;25.27;;;3.40;77.50;;;;;;5040926;28;20057;-77
2023/01/28 07:33:24;;;;;;;33.72;25.45;;;3.50;77.80;;;;;;5039564;28;20057;-77
2023/01/28 07:35:50;;;;;;;35.92;26.30;;;3.40;77.90;;;;;;5032976;28;20090;-76
2023/01/28 07:38:15;;;;;;;34.13;25.05;;;3.50;77.80;;;;;;5035529;28;20028;-77
2023/01/28 07:40:41;;;;;;;33.58;26.52;;;3.50;77.60;;;;;;5042063;28;20048;-77
2023/01/28 07:43:07;;;;;;;32.22;25.55;;;3.50;77.50;;;;;;5037514;28;20455;-77
2023/01/28 07:45:33;;;;;;;33.88;25.13;;;3.50;77.30;;;;;;5039693;28;20025;-76
2023/01/28 07:48:02;;;;;;;31.38;24.52;;;3.50;77.50;;;;;;5042903;28;20086;-77
2023/01/28 07:50:29;;;;;;;31.38;25.25;;;3.50;77.00;;;;;;5039151;28;20486;-77
2023/01/28 07:52:58;;;;;;;32.10;25.15;;;3.50;76.90;;;;;;5041420;28;20047;-76
2023/01/28 07:55:24;;;;;;;33.83;27.38;;;3.50;76.90;;;;;;5037804;28;20057;-77
2023/01/28 07:57:52;;;;;;;31.33;24.52;;;3.50;76.90;;;;;;5039842;28;20029;-77
2023/01/28 08:00:19;;;;;;;29.02;21.73;;;3.60;76.60;;;;;;5039842;28;20028;-76
2023/01/28 08:02:46;;;;;;;33.33;24.60;;;3.50;76.50;;;;;;5038670;28;20037;-76
2023/01/28 08:05:18;;;;;;;31.52;25.48;;;3.60;76.40;;;;;;5035447;28;20017;-76
2023/01/28 08:07:44;;;;;;;31.20;24.42;;;3.50;76.60;;;;;;5038783;28;20044;-77
2023/01/28 08:10:11;;;;;;;31.67;25.17;;;3.50;76.70;;;;;;5040512;28;20755;-76
2023/01/28 08:12:38;;;;;;;31.48;24.38;;;3.60;76.90;;;;;;5033536;28;20149;-75
2023/01/28 08:15:04;;;;;;;32.78;24.85;;;3.60;76.60;;;;;;5036039;28;20032;-77
2023/01/28 08:17:31;;;;;;;32.08;25.10;;;3.60;76.60;;;;;;5032946;28;20033;-76
2023/01/28 08:19:56;;;;;;;37.35;27.80;;;3.70;76.70;;;;;;5031875;28;20017;-76
2023/01/28 08:22:26;;;;;;;33.63;25.90;;;3.70;76.70;;;;;;5032399;28;20368;-76
2023/01/28 08:24:52;;;;;;;31.02;23.75;;;3.70;76.80;;;;;;5034650;28;20056;-76
2023/01/28 08:27:17;;;;;;;31.35;24.05;;;3.80;76.80;;;;;;5021914;28;20116;-76
2023/01/28 08:29:43;;;;;;;29.15;23.17;;;3.80;77.00;;;;;;5031997;28;20044;-76
2023/01/28 08:32:09;;;;;;;32.22;23.58;;;3.80;76.90;;;;;;5032399;28;20033;-76
2023/01/28 08:34:35;;;;;;;33.25;25.15;;;3.90;76.70;;;;;;5036153;28;20021;-77
2023/01/28 08:37:01;;;;;;;35.65;26.25;;;3.90;76.40;;;;;;5036571;28;20044;-73
2023/01/28 08:39:26;;;;;;;35.63;27.27;;;3.90;76.00;;;;;;5038362;28;20456;-73
2023/01/28 08:41:52;;;;;;;32.63;25.02;;;4.00;76.00;;;;;;5035990;28;20461;-73
2023/01/28 08:44:18;;;;;;;32.72;24.92;;;4.10;76.10;;;;;;5040068;28;20037;-74
2023/01/28 08:46:43;;;;;;;31.52;25.17;;;4.10;76.00;;;;;;5040613;28;20458;-73
2023/01/28 08:49:09;;;;;;;29.60;23.45;;;4.20;75.60;;;;;;5041893;28;20979;-74
2023/01/28 08:51:35;;;;;;;27.83;23.02;;;4.20;74.90;;;;;;5039032;28;20025;-72
2023/01/28 08:54:01;;;;;;;27.80;22.33;;;4.20;74.70;;;;;;5032282;28;20068;-74
2023/01/28 08:56:26;;;;;;;27.63;21.65;;;4.20;75.00;;;;;;5036753;28;20507;-72
2023/01/28 08:58:52;;;;;;;28.98;24.27;;;4.20;74.70;;;;;;5027129;28;20026;-72
2023/01/28 09:01:18;;;;;;;34.33;26.65;;;4.20;74.70;;;;;;5029338;28;20409;-73
2023/01/28 09:03:43;;;;;;;28.08;22.38;;;4.10;74.90;;;;;;5035202;28;20112;-73
2023/01/28 09:06:09;;;;;;;30.38;23.58;;;4.20;75.00;;;;;;5035920;28;20345;-73
2023/01/28 09:08:34;;;;;;;27.00;22.42;;;4.20;75.00;;;;;;5030009;28;20532;-73
2023/01/28 09:11:00;;;;;;;27.38;21.80;;;4.30;74.90;;;;;;5033315;28;20112;-73
2023/01/28 09:13:26;;;;;;;30.00;22.90;;;4.30;74.10;;;;;;5027944;28;20023;-73
2023/01/28 09:15:52;;;;;;;27.30;21.13;;;4.20;74.00;;;;;;5033527;28;20117;-74
2023/01/28 09:18:18;;;;;;;28.50;23.13;;;4.30;74.10;;;;;;5035849;28;20037;-73
2023/01/28 09:20:44;;;;;;;29.13;22.23;;;4.50;74.00;;;;;;5030302;28;20036;-73
2023/01/28 09:23:11;;;;;;;29.40;23.08;;;4.60;73.80;;;;;;5034766;28;20021;-73
2023/01/28 09:25:37;;;;;;;31.02;23.98;;;4.90;73.60;;;;;;5029975;28;20040;-73
2023/01/28 09:28:03;;;;;;;30.63;24.67;;;5.30;73.50;;;;;;5034667;28;20045;-73
2023/01/28 09:30:30;;;;;;;31.25;24.35;;;5.60;71.70;;;;;;5033824;28;20454;-73
2023/01/28 09:32:57;;;;;;;29.95;23.88;;;5.60;70.60;;;;;;5031467;28;20143;-73
2023/01/28 09:35:23;;;;;;;31.42;24.50;;;5.60;70.30;;;;;;5035534;28;20047;-73
2023/01/28 09:37:50;;;;;;;29.75;23.20;;;5.40;71.00;;;;;;5033299;28;20472;-73
2023/01/28 09:40:20;;;;;;;26.65;22.10;;;5.40;71.10;;;;;;5038350;28;20016;-73
2023/01/28 09:42:52;;;;;;;32.00;23.27;;;5.10;70.60;;;;;;5040958;28;20067;-73
2023/01/28 09:45:23;;;;;;;27.48;22.38;;;5.10;70.90;;;;;;5043158;28;20028;-73
2023/01/28 09:47:55;;;;;;;30.75;24.15;;;5.10;71.50;;;;;;5039431;28;20083;-73
2023/01/28 09:50:37;;;;;;;29.90;22.92;;;4.90;71.70;;;;;;5042382;28;20017;-74
2023/01/28 09:53:23;;;;;;;29.85;22.67;;;4.60;73.00;;;;;;5047641;28;20035;-73
2023/01/28 09:55:56;;;;;;;27.95;21.13;;;4.90;73.50;;;;;;5044304;28;20037;-73
2023/01/28 09:58:22;;;;;;;27.40;20.88;;;5.10;72.00;;;;;;5045039;28;20337;-73
2023/01/28 10:01:01;;;;;;;27.08;21.25;;;5.00;71.30;;;;;;5044914;28;20070;-73
2023/01/28 10:04:00;;;;;;;27.05;21.02;;;5.00;71.20;;;;;;5041101;28;20499;-73
2023/01/28 10:06:54;;;;;;;27.27;21.45;;;4.90;71.80;;;;;;5045388;28;20029;-73
2023/01/28 10:09:19;;;;;;;29.85;24.15;;;4.80;72.50;;;;;;5043635;28;20100;-73
2023/01/28 10:12:03;;;;;;;27.15;21.77;;;5.00;72.90;;;;;;5042783;28;20124;-73
2023/01/28 10:14:40;;;;;;;27.05;20.90;;;5.00;72.10;;;;;;5042477;28;20033;-73
2023/01/28 10:17:21;;;;;;;26.25;21.02;;;4.90;72.00;;;;;;5042135;28;20052;-73
2023/01/28 10:20:19;;;;;;;29.83;22.20;;;5.20;72.40;;;;;;5038131;28;20048;-73
2023/01/28 10:22:53;;;;;;;24.98;19.83;;;5.40;71.00;;;;;;5037947;28;20048;-73
2023/01/28 10:25:25;;;;;;;26.45;19.52;;;5.10;70.80;;;;;;5034579;28;20105;-73
2023/01/28 10:27:51;;;;;;;27.55;21.45;;;5.20;71.00;;;;;;5042079;28;20122;-73
2023/01/28 10:30:19;;;;;;;29.35;21.23;;;5.10;71.50;;;;;;5042927;28;20027;-73
2023/01/28 10:33:26;;;;;;;25.73;20.30;;;5.00;72.50;;;;;;5036552;28;20447;-73
2023/01/28 10:35:54;;;;;;;24.65;18.08;;;5.20;72.70;;;;;;4981617;28;20034;-74
2023/01/28 10:38:22;;;;;;;24.60;17.85;;;5.30;71.90;;;;;;4972102;28;20130;-74
2023/01/28 10:40:48;;;;;;;23.15;18.55;;;5.10;70.30;;;;;;5005639;28;20029;-74
2023/01/28 10:43:23;;;;;;;24.90;17.58;;;5.20;70.70;;;;;;5041812;28;20134;-73
2023/01/28 10:46:07;;;;;;;23.52;17.23;;;5.00;71.20;;;;;;5036575;28;20393;-74
2023/01/28 10:48:41;;;;;;;21.55;15.70;;;5.10;71.10;;;;;;5040607;28;20057;-73
2023/01/28 10:51:06;;;;;;;22.53;13.77;;;5.10;70.70;;;;;;5040701;28;20044;-74
2023/01/28 10:53:41;;;;;;;19.15;13.57;;;5.00;70.20;;;;;;5041963;28;20033;-72
2023/01/28 10:56:14;;;;;;;19.83;14.63;;;5.00;70.00;;;;;;5039033;28;20421;-72
2023/01/28 10:58:57;;;;;;;21.33;13.93;;;4.90;70.10;;;;;;5039840;28;20025;-72
2023/01/28 11:01:23;;;;;;;18.63;13.85;;;4.80;70.80;;;;;;5040329;28;20033;-72
2023/01/28 11:03:57;;;;;;;17.98;12.85;;;4.90;70.60;;;;;;5043384;28;20433;-72
2023/01/28 11:06:28;;;;;;;18.83;13.95;;;5.00;70.70;;;;;;5041283;28;20045;-72
2023/01/28 11:08:57;;;;;;;18.88;13.95;;;5.00;70.80;;;;;;5044753;28;20033;-73
2023/01/28 11:11:27;;;;;;;18.27;13.98;;;5.00;70.40;;;;;;5042902;28;20056;-73
2023/01/28 11:13:57;;;;;;;17.45;13.13;;;5.10;70.30;;;;;;5040539;28;20113;-72
2023/01/28 11:16:24;;;;;;;16.92;12.60;;;5.10;70.20;;;;;;5042710;28;20037;-72
2023/01/28 11:18:53;;;;;;;20.48;13.98;;;5.10;70.20;;;;;;5041364;28;20025;-72
2023/01/28 11:21:25;;;;;;;18.00;13.38;;;5.30;70.10;;;;;;5038336;28;20314;-72
2023/01/28 11:24:28;;;;;;;19.70;14.18;;;5.30;69.20;;;;;;5041696;28;20051;-72
2023/01/28 11:26:56;;;;;;;16.23;12.00;;;5.40;69.00;;;;;;4999850;28;20038;-72
2023/01/28 11:29:31;;;;;;;18.08;12.63;;;5.40;69.70;;;;;;5034033;28;20052;-72
2023/01/28 11:31:58;;;;;;;17.63;13.40;;;5.60;69.00;;;;;;5042211;28;20029;-73
2023/01/28 11:34:27;;;;;;;20.60;13.77;;;5.50;68.60;;;;;;5037984;28;20373;-73
2023/01/28 11:37:15;;;;;;;14.45;11.50;;;5.70;69.70;;;;;;5040932;28;20033;-72
2023/01/28 11:39:41;;;;;;;18.90;12.05;;;5.70;67.60;;;;;;5038566;28;20023;-72
2023/01/28 11:42:09;;;;;;;16.65;13.00;;;5.60;68.20;;;;;;5044225;28;20053;-73
2023/01/28 11:44:35;;;;;;;18.52;15.05;;;5.50;69.20;;;;;;5044566;28;20024;-73
2023/01/28 11:47:13;;;;;;;17.20;12.15;;;5.70;69.10;;;;;;5041638;28;20044;-73
2023/01/28 11:49:57;;;;;;;18.70;12.50;;;5.80;68.00;;;;;;5038923;28;20110;-72
2023/01/28 11:53:01;;;;;;;17.75;13.98;;;6.00;67.90;;;;;;5043899;28;20407;-73
2023/01/28 11:55:44;;;;;;;18.92;13.00;;;6.20;67.50;;;;;;5042201;28;20099;-73
2023/01/28 11:58:24;;;;;;;18.52;12.73;;;6.30;67.00;;;;;;5038577;28;20523;-73
2023/01/28 12:01:19;;;;;;;18.33;12.95;;;6.20;66.00;;;;;;5040765;28;20029;-73
2023/01/28 12:04:27;;;;;;;18.25;13.30;;;6.00;66.40;;;;;;5032056;28;20039;-72
2023/01/28 12:07:05;;;;;;;16.20;11.93;;;5.90;66.50;;;;;;5041368;28;20082;-73
2023/01/28 12:09:46;;;;;;;17.17;12.82;;;5.60;67.30;;;;;;5036525;28;20037;-73
2023/01/28 12:12:41;;;;;;;16.70;12.13;;;5.50;66.90;;;;;;5037803;28;20473;-72
2023/01/28 12:15:24;;;;;;;15.23;10.87;;;5.60;68.90;;;;;;5034925;28;20044;-72
2023/01/28 12:18:34;;;;;;;17.00;12.13;;;5.70;67.10;;;;;;5041311;28;20337;-73
2023/01/28 12:21:07;;;;;;;14.88;11.60;;;5.60;67.70;;;;;;4994713;28;20068;-72
2023/01/28 12:23:57;;;;;;;15.80;10.95;;;5.90;67.50;;;;;;5030987;28;20366;-70
2023/01/28 12:26:35;;;;;;;17.40;11.88;;;6.10;67.00;;;;;;5040062;28;20121;-71
2023/01/28 12:29:17;;;;;;;17.77;11.63;;;6.40;66.30;;;;;;5038249;28;20039;-71
2023/01/28 12:32:20;;;;;;;17.48;12.80;;;6.50;65.90;;;;;;5042986;28;20029;-71
2023/01/28 12:35:01;;;;;;;15.65;11.75;;;6.70;65.70;;;;;;4999885;28;20478;-71
2023/01/28 12:37:35;;;;;;;17.48;12.65;;;6.60;64.80;;;;;;5038241;28;20124;-71
2023/01/28 12:40:40;;;;;;;19.10;14.38;;;6.40;65.00;;;;;;5035672;28;20104;-72
2023/01/28 12:43:13;;;;;;;19.98;15.48;;;6.30;66.20;;;;;;5039057;28;20036;-71
2023/01/28 12:45:44;;;;;;;16.90;13.30;;;6.50;66.10;;;;;;5039986;28;20520;-71
2023/01/28 12:48:30;;;;;;;19.88;14.60;;;6.40;66.60;;;;;;5037882;28;20046;-71
2023/01/28 12:51:03;;;;;;;17.38;13.52;;;6.60;66.50;;;;;;5041411;28;20144;-72
2023/01/28 12:53:45;;;;;;;17.75;13.18;;;6.40;65.40;;;;;;5039592;28;20115;-71
2023/01/28 12:56:22;;;;;;;20.00;15.02;;;6.30;66.40;;;;;;5028097;28;20641;-71
2023/01/28 12:58:59;;;;;;;82.88;62.17;;;6.20;66.90;;;;;;5033717;28;20398;-71
2023/01/28 13:01:37;;;;;;;19.35;14.55;;;6.50;66.10;;;;;;5031815;28;20522;-71
2023/01/28 13:04:12;;;;;;;18.98;13.95;;;6.40;65.20;;;;;;5038318;28;20127;-73
2023/01/28 13:06:53;;;;;;;18.25;12.98;;;6.10;65.60;;;;;;5038140;28;20655;-72
2023/01/28 13:09:22;;;;;;;19.70;12.98;;;6.10;66.10;;;;;;5040826;28;20475;-73
2023/01/28 13:11:51;;;;;;;18.58;11.60;;;5.70;66.60;;;;;;5045965;28;20037;-72
2023/01/28 13:14:18;;;;;;;17.73;12.65;;;5.70;66.80;;;;;;5043733;28;20051;-72
2023/01/28 13:16:44;;;;;;;16.98;12.20;;;5.90;67.60;;;;;;5042511;28;20041;-73
2023/01/28 13:19:18;;;;;;;16.98;12.60;;;5.70;67.00;;;;;;5040773;28;20025;-72
2023/01/28 13:21:45;;;;;;;16.88;10.55;;;5.70;67.50;;;;;;5036166;28;20570;-73
2023/01/28 13:24:13;;;;;;;16.48;11.63;;;5.90;67.20;;;;;;5037429;28;20028;-73
2023/01/28 13:26:42;;;;;;;13.95;9.60;;;5.90;66.90;;;;;;5033180;28;20034;-73
2023/01/28 13:29:13;;;;;;;15.27;10.27;;;5.70;66.20;;;;;;5032287;28;20064;-72